Time;durP1;ratioP1;P1;durP2;ratioP2;P2;SDS_P1;SDS_P2;PMS_P1;PMS_P2;Temp;Humidity;BMP_temperature;BMP_pressure;BME280_temperature;BME280_humidity;BME280_pressure;Samples;Min_cycle;Max_cycle;Signal;HPM_P1;HPM_P2
2022/09/26 00:01:29;;;;;;;34.88;16.25;;;11.80;99.90;;;10.73;100.00;96891.94;5036460;28;20518;-73
2022/09/26 00:03:58;;;;;;;37.35;16.98;;;11.60;99.90;;;10.72;100.00;96900.94;5036022;28;20460;-73
2022/09/26 00:06:25;;;;;;;39.00;18.08;;;11.70;99.90;;;10.76;100.00;96892.19;5036422;28;20403;-72
2022/09/26 00:08:52;;;;;;;31.40;16.75;;;11.70;99.90;;;10.75;100.00;96887.94;5036512;28;20448;-73
2022/09/26 00:11:21;;;;;;;31.40;16.65;;;11.70;99.90;;;10.75;100.00;96884.53;5036505;28;20403;-72
2022/09/26 00:13:52;;;;;;;40.13;17.65;;;11.70;99.90;;;10.76;100.00;96888.75;5035847;28;20403;-73
2022/09/26 00:16:20;;;;;;;33.83;16.67;;;11.70;99.90;;;10.72;100.00;96882.41;5036472;28;20410;-72
2022/09/26 00:18:48;;;;;;;33.40;17.58;;;11.70;99.90;;;10.70;100.00;96889.81;5036323;28;20410;-72
2022/09/26 00:21:15;;;;;;;34.42;16.38;;;11.70;99.90;;;10.70;100.00;96879.22;5036190;28;20419;-72
2022/09/26 00:23:41;;;;;;;34.05;16.95;;;11.70;99.90;;;10.67;100.00;96887.72;5035808;28;20403;-72
2022/09/26 00:26:07;;;;;;;32.83;17.90;;;11.60;99.90;;;10.70;100.00;96882.66;5018596;28;20413;-72
2022/09/26 00:28:34;;;;;;;37.20;18.08;;;11.60;99.90;;;10.61;100.00;96883.44;5036254;28;20452;-72
2022/09/26 00:31:03;;;;;;;36.55;17.58;;;11.60;99.90;;;10.53;100.00;96889.25;5036368;28;20469;-72
2022/09/26 00:33:31;;;;;;;36.33;17.60;;;11.50;99.90;;;10.41;100.00;96884.22;5035683;28;20446;-72
2022/09/26 00:35:57;;;;;;;34.75;16.88;;;11.40;99.90;;;10.36;100.00;96881.56;5036227;28;20425;-72
2022/09/26 00:38:23;;;;;;;39.42;18.77;;;11.30;99.90;;;10.34;100.00;96878.38;5036307;28;20404;-72
2022/09/26 00:40:49;;;;;;;40.17;19.23;;;11.30;99.90;;;10.35;100.00;96883.41;5036280;28;20431;-72
2022/09/26 00:43:27;;;;;;;40.83;19.03;;;11.40;99.90;;;10.32;100.00;96881.28;5035831;28;20461;-72
2022/09/26 00:45:54;;;;;;;39.33;18.67;;;11.30;99.90;;;10.29;100.00;96879.19;5036218;28;20403;-73
2022/09/26 00:48:21;;;;;;;42.80;20.00;;;11.30;99.90;;;10.27;100.00;96881.28;5036259;28;20399;-72
2022/09/26 00:50:48;;;;;;;42.10;19.98;;;11.30;99.90;;;10.23;100.00;96874.91;5032283;28;20876;-72
2022/09/26 00:53:19;;;;;;;42.65;20.38;;;11.30;99.90;;;10.21;100.00;96886.81;5032584;28;20493;-72
2022/09/26 00:55:55;;;;;;;47.10;20.50;;;11.20;99.90;;;10.10;100.00;96878.81;5033194;28;20423;-72
2022/09/26 00:58:26;;;;;;;42.67;20.85;;;11.10;99.90;;;10.08;100.00;96872.19;5032875;28;20395;-72
2022/09/26 01:00:53;;;;;;;44.53;20.33;;;11.10;99.90;;;10.03;100.00;96875.63;5032878;28;20422;-72
2022/09/26 01:03:21;;;;;;;46.10;20.80;;;11.10;99.90;;;10.01;100.00;96871.63;5032413;28;20403;-71
2022/09/26 01:05:48;;;;;;;44.97;22.13;;;11.00;99.90;;;9.97;100.00;96871.38;5032781;28;20411;-72
2022/09/26 01:08:21;;;;;;;38.35;19.88;;;11.00;99.90;;;9.95;100.00;96868.19;5032898;28;20649;-72
2022/09/26 01:10:47;;;;;;;41.17;20.17;;;11.00;99.90;;;9.91;100.00;96855.75;5032760;28;20399;-72
2022/09/26 01:13:13;;;;;;;35.63;18.70;;;11.00;99.90;;;9.88;100.00;96856.25;5032401;28;20425;-72
2022/09/26 01:15:39;;;;;;;35.72;19.02;;;10.90;99.90;;;9.86;100.00;96847.78;5032640;28;20819;-72
2022/09/26 01:18:06;;;;;;;33.13;17.93;;;10.90;99.90;;;9.87;100.00;96855.47;5032337;28;20520;-71
2022/09/26 01:20:44;;;;;;;37.25;18.77;;;10.90;99.90;;;9.87;100.00;96855.47;5032491;28;20410;-72
2022/09/26 01:24:22;;;;;;;41.15;19.05;;;10.90;99.90;;;9.85;100.00;96856.81;5032034;28;20436;-72
2022/09/26 01:27:27;;;;;;;40.92;20.05;;;10.90;99.90;;;9.83;100.00;96862.34;5032541;28;20492;-72
2022/09/26 01:30:11;;;;;;;41.88;19.35;;;10.90;99.90;;;9.79;100.00;96865.75;5032459;28;20406;-72
2022/09/26 01:33:33;;;;;;;34.22;18.77;;;10.90;99.90;;;9.72;100.00;96868.63;5030535;28;20415;-72
2022/09/26 01:36:41;;;;;;;36.10;17.80;;;10.80;99.90;;;9.67;100.00;96872.06;5016662;28;20419;-72
2022/09/26 01:39:33;;;;;;;39.50;18.77;;;10.80;99.90;;;9.66;100.00;96867.81;5032242;28;20421;-72
2022/09/26 01:42:16;;;;;;;37.38;18.98;;;10.70;99.90;;;9.64;100.00;96867.25;5032068;28;20431;-72
2022/09/26 01:44:49;;;;;;;39.90;19.27;;;10.70;99.90;;;9.65;100.00;96860.13;5031705;28;20403;-72
2022/09/26 01:47:22;;;;;;;36.83;17.75;;;10.70;99.90;;;9.67;100.00;96860.69;5014412;28;20403;-72
2022/09/26 01:49:58;;;;;;;41.40;19.58;;;10.70;99.90;;;9.78;100.00;96862.31;5032000;28;20399;-72
2022/09/26 01:52:35;;;;;;;41.50;20.55;;;10.80;99.90;;;9.84;100.00;96865.78;5031850;28;20502;-72
2022/09/26 01:55:09;;;;;;;37.53;18.20;;;10.90;99.90;;;9.86;100.00;96858.38;5031752;28;20406;-72
2022/09/26 01:57:41;;;;;;;29.98;17.48;;;10.90;99.90;;;9.90;100.00;96859.44;5014052;28;20418;-72
2022/09/26 02:00:12;;;;;;;31.02;16.90;;;10.90;99.90;;;9.85;100.00;96862.84;5031886;28;20796;-72
2022/09/26 02:02:43;;;;;;;38.38;17.48;;;10.90;99.90;;;9.85;100.00;96862.09;5031380;28;20421;-72
2022/09/26 02:05:17;;;;;;;28.85;15.70;;;10.90;99.90;;;9.83;100.00;96849.13;5031810;28;20482;-72
2022/09/26 02:07:51;;;;;;;30.83;15.10;;;10.90;99.90;;;9.86;100.00;96855.72;5031646;28;20407;-72
2022/09/26 02:10:22;;;;;;;28.20;15.18;;;10.90;99.90;;;9.85;100.00;96860.22;5031768;28;20403;-72
2022/09/26 02:12:53;;;;;;;26.73;14.30;;;10.90;99.90;;;9.88;100.00;96843.84;5031148;28;20399;-72
2022/09/26 02:15:24;;;;;;;19.45;11.75;;;10.80;99.90;;;9.86;100.00;96847.78;5031667;28;20452;-71
2022/09/26 02:17:57;;;;;;;27.30;12.80;;;10.90;99.90;;;9.92;100.00;96850.19;5031423;28;20423;-72
2022/09/26 02:20:29;;;;;;;22.70;12.20;;;10.90;99.90;;;9.91;100.00;96845.19;5031472;28;20869;-71
2022/09/26 02:22:56;;;;;;;23.70;13.57;;;11.00;99.90;;;9.88;100.00;96848.34;5013254;28;20873;-72
2022/09/26 02:25:22;;;;;;;22.90;13.35;;;11.00;99.90;;;9.86;100.00;96842.50;5013664;28;20865;-72
2022/09/26 02:27:49;;;;;;;25.85;13.40;;;10.90;99.90;;;9.84;100.00;96842.78;5031361;28;20482;-72
2022/09/26 02:30:15;;;;;;;19.10;12.68;;;10.90;99.90;;;9.84;100.00;96837.50;5031465;28;20395;-72
2022/09/26 02:32:41;;;;;;;20.58;13.32;;;10.90;99.90;;;9.87;100.00;96834.31;5013132;28;20983;-71
2022/09/26 02:37:54;;;;;;;24.53;13.57;;;10.90;99.90;;;9.88;100.00;96829.81;5031327;28;20528;-72
2022/09/26 02:40:25;;;;;;;20.73;12.70;;;10.80;99.90;;;9.80;100.00;96825.84;5031219;28;20469;-73
2022/09/26 02:43:05;;;;;;;20.75;12.48;;;10.80;99.90;;;9.78;100.00;96821.84;5030674;28;20399;-72
2022/09/26 02:45:42;;;;;;;20.97;12.07;;;10.80;99.90;;;9.82;100.00;96822.94;5031156;28;20478;-72
2022/09/26 02:48:27;;;;;;;26.55;12.20;;;10.80;99.90;;;9.83;100.00;96824.53;5030986;28;20403;-72
2022/09/26 02:51:15;;;;;;;19.42;11.23;;;10.80;99.90;;;9.85;100.00;96825.84;5031033;28;20391;-72
2022/09/26 02:54:01;;;;;;;21.95;11.75;;;10.90;99.90;;;9.86;100.00;96827.44;5030432;28;20399;-72
2022/09/26 02:56:35;;;;;;;17.23;10.73;;;10.90;99.90;;;9.85;100.00;96822.44;5030885;28;20411;-72
2022/09/26 02:59:09;;;;;;;20.85;11.30;;;10.90;99.90;;;9.87;100.00;96820.31;5012968;28;20757;-73
2022/09/26 03:01:45;;;;;;;21.15;11.07;;;10.90;99.90;;;9.88;100.00;96814.75;5030740;28;20473;-73
2022/09/26 03:04:20;;;;;;;21.63;11.25;;;10.90;99.90;;;9.91;100.00;96811.63;5012566;28;20448;-72
2022/09/26 03:06:52;;;;;;;15.77;10.25;;;10.90;99.90;;;9.90;100.00;96806.59;5030882;28;20533;-73
2022/09/26 03:09:21;;;;;;;18.50;10.43;;;10.90;99.90;;;9.88;100.00;96801.53;5030634;28;20556;-72
2022/09/26 03:11:48;;;;;;;17.30;10.55;;;10.90;99.90;;;9.86;100.00;96801.00;5012846;28;20525;-73
2022/09/26 03:14:16;;;;;;;16.85;9.77;;;10.90;99.90;;;9.84;100.00;96792.56;5029656;28;20490;-72
2022/09/26 03:16:44;;;;;;;18.03;10.27;;;10.90;99.90;;;9.96;100.00;96787.03;5030510;28;20407;-73
2022/09/26 03:19:18;;;;;;;16.00;10.00;;;10.90;99.90;;;9.93;100.00;96782.25;5065479;23;20424;-75
2022/09/26 03:21:44;;;;;;;16.08;9.25;;;10.90;99.90;;;9.90;100.00;96786.22;5069382;28;20412;-75
2022/09/26 03:24:11;;;;;;;14.25;9.70;;;10.90;99.90;;;9.92;100.00;96781.44;5069122;28;20400;-75
2022/09/26 03:26:40;;;;;;;13.88;9.57;;;10.90;99.90;;;9.91;100.00;96781.75;5070365;28;20408;-75
2022/09/26 03:29:06;;;;;;;12.60;8.70;;;10.90;99.90;;;9.89;100.00;96773.25;5058714;28;20424;-75
2022/09/26 03:31:32;;;;;;;15.95;8.85;;;10.90;99.90;;;9.86;100.00;96779.06;5050219;28;20441;-75
2022/09/26 03:33:58;;;;;;;16.25;9.02;;;10.90;99.90;;;9.84;100.00;96774.06;5049690;28;20847;-75
2022/09/26 03:36:24;;;;;;;16.48;8.88;;;10.90;99.90;;;9.82;100.00;96775.38;5050242;28;20416;-75
2022/09/26 03:38:50;;;;;;;12.53;7.83;;;10.80;99.90;;;9.82;100.00;96772.72;5050058;28;20531;-75
2022/09/26 03:41:18;;;;;;;14.93;8.18;;;10.80;99.90;;;9.81;100.00;96771.94;5050178;28;20409;-75
2022/09/26 03:43:44;;;;;;;15.15;8.30;;;10.90;99.90;;;9.79;100.00;96768.75;5049732;28;20436;-76
2022/09/26 03:46:11;;;;;;;16.80;8.83;;;10.80;99.90;;;9.80;100.00;96765.03;5050087;28;20477;-76
2022/09/26 03:48:38;;;;;;;15.60;8.60;;;10.80;99.90;;;9.77;100.00;96767.44;5049085;28;20405;-76
2022/09/26 03:51:06;;;;;;;16.30;8.68;;;10.80;99.90;;;9.77;100.00;96764.78;5048797;28;20459;-77
2022/09/26 03:53:32;;;;;;;13.35;8.30;;;10.80;99.90;;;9.75;100.00;96757.13;5049490;28;20871;-77
2022/09/26 03:56:04;;;;;;;14.77;9.13;;;10.80;99.90;;;9.74;100.00;96757.38;5049396;28;20917;-77
2022/09/26 03:58:31;;;;;;;13.30;8.15;;;10.80;99.90;;;9.68;100.00;96751.28;5049061;28;20401;-76
2022/09/26 04:01:03;;;;;;;11.90;7.75;;;10.70;99.90;;;9.65;100.00;96749.16;5049064;28;20417;-76
2022/09/26 04:03:33;;;;;;;13.57;8.23;;;10.70;99.90;;;9.64;100.00;96750.19;5047391;28;20402;-76
2022/09/26 04:05:58;;;;;;;18.88;6.82;;;10.70;99.90;;;9.52;100.00;96747.81;5049171;28;20401;-76
2022/09/26 04:08:24;;;;;;;15.13;6.85;;;10.50;99.90;;;9.51;100.00;96743.56;5048399;28;20397;-76
2022/09/26 04:10:50;;;;;;;10.25;6.32;;;10.50;99.90;;;9.45;100.00;96739.31;5049647;28;20536;-76
2022/09/26 04:13:16;;;;;;;14.30;7.10;;;10.50;99.90;;;9.44;100.00;96734.28;5048884;28;20405;-76
2022/09/26 04:15:43;;;;;;;10.20;7.37;;;10.40;99.90;;;9.46;100.00;96737.47;5049357;28;20409;-76
2022/09/26 04:18:09;;;;;;;13.40;6.43;;;10.50;99.90;;;9.39;100.00;96731.66;5048458;28;20437;-75
2022/09/26 04:20:35;;;;;;;17.63;6.78;;;10.40;99.90;;;9.41;100.00;96724.22;5037035;28;21025;-76
2022/09/26 04:23:01;;;;;;;14.57;6.90;;;10.40;99.90;;;9.39;100.00;96721.09;5033085;28;20467;-77
2022/09/26 04:25:28;;;;;;;13.40;7.22;;;10.40;99.90;;;9.39;100.00;96713.16;5043409;28;20413;-76
2022/09/26 04:27:54;;;;;;;11.35;7.00;;;10.40;99.90;;;9.47;100.00;96712.66;5052449;28;20424;-77
2022/09/26 04:30:21;;;;;;;12.17;6.90;;;10.50;99.90;;;9.43;100.00;96711.56;5043827;28;20422;-74
2022/09/26 04:32:48;;;;;;;11.70;7.32;;;10.40;99.90;;;9.40;100.00;96704.94;5050051;28;20408;-82
2022/09/26 04:35:14;;;;;;;11.43;7.82;;;10.40;99.90;;;9.38;100.00;96699.16;5052213;28;20413;-80
2022/09/26 04:37:40;;;;;;;10.70;7.73;;;10.40;99.90;;;9.36;100.00;96695.19;5042357;28;20432;-81
2022/09/26 04:40:09;;;;;;;11.40;7.35;;;10.40;99.90;;;9.37;100.00;96696.75;5052999;28;20402;-81
2022/09/26 04:42:35;;;;;;;12.82;7.32;;;10.40;99.90;;;9.36;100.00;96703.09;5047594;28;20659;-81
2022/09/26 04:45:01;;;;;;;10.57;7.55;;;10.40;99.90;;;9.33;100.00;96699.13;5046713;28;20772;-76
2022/09/26 04:47:27;;;;;;;13.00;7.95;;;10.40;99.90;;;9.29;100.00;96692.78;5043626;28;20498;-78
2022/09/26 04:49:55;;;;;;;14.65;7.80;;;10.40;99.90;;;9.25;100.00;96695.13;5046189;28;20533;-79
2022/09/26 04:52:20;;;;;;;15.80;7.40;;;10.30;99.90;;;9.21;100.00;96688.78;5049466;28;20496;-78
2022/09/26 04:54:46;;;;;;;16.63;8.15;;;10.30;99.90;;;9.21;100.00;96691.44;5048612;28;20460;-77
2022/09/26 04:57:13;;;;;;;13.98;7.30;;;10.30;99.90;;;9.19;100.00;96688.25;5051568;28;20496;-75
2022/09/26 04:59:39;;;;;;;11.60;7.30;;;10.20;99.90;;;9.21;100.00;96690.63;5047492;28;20415;-77
2022/09/26 05:02:06;;;;;;;16.40;7.50;;;10.20;99.90;;;9.25;100.00;96689.06;5048166;28;20418;-76
2022/09/26 05:04:32;;;;;;;13.15;7.68;;;10.30;99.90;;;9.26;100.00;96688.00;5050506;28;20809;-77
2022/09/26 05:07:00;;;;;;;10.97;7.00;;;10.30;99.90;;;9.21;100.00;96682.72;5042309;28;20415;-77
2022/09/26 05:09:25;;;;;;;17.80;7.38;;;10.30;99.90;;;9.21;100.00;96677.44;5044616;28;20486;-76
2022/09/26 05:11:52;;;;;;;13.02;7.10;;;10.30;99.90;;;9.19;100.00;96679.53;5052497;28;20416;-76
2022/09/26 05:14:18;;;;;;;11.48;7.22;;;10.20;99.90;;;9.19;100.00;96682.16;5052014;28;20913;-80
2022/09/26 05:16:44;;;;;;;13.75;6.97;;;10.20;99.90;;;9.16;100.00;96682.72;5052623;28;20401;-78
2022/09/26 05:19:10;;;;;;;13.85;7.13;;;10.20;99.90;;;9.13;100.00;96685.84;5052385;28;20771;-81
2022/09/26 05:21:36;;;;;;;12.98;7.15;;;10.20;99.90;;;9.15;100.00;96687.19;5052476;28;20440;-80
2022/09/26 05:26:51;;;;;;;15.05;7.60;;;10.20;99.90;;;9.17;100.00;96690.34;5052419;28;20392;-77
2022/09/26 05:29:18;;;;;;;14.40;7.30;;;10.20;99.90;;;9.17;100.00;96689.59;5052311;28;20405;-84
2022/09/26 05:31:45;;;;;;;12.52;7.15;;;10.20;99.90;;;9.11;100.00;96687.94;5052431;28;20473;-79
2022/09/26 05:34:12;;;;;;;14.77;7.47;;;10.20;99.90;;;9.11;100.00;96685.31;5050517;28;20405;-78
2022/09/26 05:36:39;;;;;;;12.73;7.00;;;10.10;99.90;;;9.06;100.00;96683.47;5052119;28;20420;-76
2022/09/26 05:40:55;;;;;;;12.00;7.35;;;10.10;99.90;;;9.14;100.00;96682.97;5052302;28;20508;-76
2022/09/26 05:41:53;;;;;;;14.13;7.80;;;10.20;99.90;;;9.14;100.00;96680.31;5052104;28;20530;-78
2022/09/26 05:44:19;;;;;;;15.03;7.17;;;10.20;99.90;;;9.01;100.00;96678.16;5051681;28;20993;-79
2022/09/26 05:46:45;;;;;;;12.73;7.18;;;10.10;99.90;;;8.95;100.00;96673.88;5052129;28;20393;-75
2022/09/26 05:49:13;;;;;;;14.48;7.07;;;10.00;99.90;;;8.95;100.00;96673.88;5052000;28;20393;-75
2022/09/26 05:51:40;;;;;;;14.15;7.90;;;9.90;99.90;;;9.03;100.00;96673.41;5039377;28;20419;-75
2022/09/26 05:54:07;;;;;;;14.80;8.10;;;10.00;99.90;;;9.04;100.00;96668.91;5049372;28;20411;-75
2022/09/26 05:56:36;;;;;;;13.27;8.38;;;10.10;99.90;;;9.14;100.00;96669.75;5052454;28;20393;-73
2022/09/26 05:59:02;;;;;;;14.82;7.80;;;10.20;99.90;;;9.19;100.00;96667.13;5050282;28;20424;-73
2022/09/26 06:01:28;;;;;;;17.92;7.93;;;10.20;99.90;;;9.23;100.00;96665.56;5051676;28;20508;-73
2022/09/26 06:03:54;;;;;;;13.95;7.35;;;10.20;99.90;;;9.19;100.00;96666.31;5051243;28;20488;-73
2022/09/26 06:06:20;;;;;;;11.70;6.85;;;10.20;99.90;;;9.23;100.00;96656.84;5051608;28;20926;-73
2022/09/26 06:08:47;;;;;;;12.18;6.53;;;10.20;99.90;;;9.08;100.00;96660.25;5051519;28;20401;-73
2022/09/26 06:11:17;;;;;;;10.73;7.07;;;10.10;99.90;;;9.14;100.00;96655.75;5061930;28;20706;-74
2022/09/26 06:13:44;;;;;;;12.18;6.63;;;10.20;99.90;;;9.16;100.00;96661.59;5065481;28;20402;-72
2022/09/26 06:16:13;;;;;;;10.48;6.20;;;10.20;99.90;;;9.21;100.00;96656.31;5047935;28;20408;-74
2022/09/26 06:18:40;;;;;;;15.10;6.32;;;10.20;99.90;;;9.25;100.00;96667.94;5049573;28;20448;-74
2022/09/26 06:21:08;;;;;;;12.55;5.90;;;10.20;99.90;;;9.20;100.00;96660.78;5051444;28;20420;-73
2022/09/26 06:23:35;;;;;;;13.05;6.22;;;10.20;99.90;;;9.18;100.00;96657.63;5050908;28;20492;-74
2022/09/26 06:26:02;;;;;;;10.88;4.95;;;10.20;99.90;;;9.22;100.00;96660.53;5051319;28;20405;-73
2022/09/26 06:28:30;;;;;;;11.73;5.90;;;10.20;99.90;;;9.22;100.00;96658.69;5050331;28;20935;-73
2022/09/26 06:30:56;;;;;;;10.88;6.15;;;10.30;99.90;;;9.25;100.00;96649.44;5046199;28;20409;-73
2022/09/26 06:33:23;;;;;;;7.78;5.75;;;10.20;99.90;;;9.28;100.00;96649.72;5050265;28;20402;-73
2022/09/26 06:35:59;;;;;;;10.07;5.68;;;10.30;99.90;;;9.41;100.00;96645.00;5051241;28;20470;-72
2022/09/26 06:38:25;;;;;;;10.43;5.93;;;10.40;99.90;;;9.53;100.00;96650.84;5050936;28;20404;-73
2022/09/26 06:40:51;;;;;;;11.50;7.03;;;10.50;99.90;;;9.71;100.00;96640.53;5049600;28;20970;-73
2022/09/26 06:43:17;;;;;;;8.55;5.43;;;10.70;99.90;;;9.80;100.00;96640.81;5050559;28;20416;-73
2022/09/26 06:45:47;;;;;;;9.53;5.67;;;10.80;99.90;;;9.86;100.00;96639.75;5050464;28;20435;-74
2022/09/26 06:48:13;;;;;;;11.43;5.45;;;10.90;99.90;;;9.91;100.00;96637.13;5038038;28;20452;-75
2022/09/26 06:50:39;;;;;;;8.43;5.40;;;10.90;99.90;;;9.99;100.00;96651.69;5049140;28;20417;-73
2022/09/26 06:53:05;;;;;;;8.53;5.13;;;11.00;99.90;;;10.02;100.00;96640.56;5049656;28;20398;-73
2022/09/26 06:55:31;;;;;;;11.57;6.15;;;11.00;99.90;;;10.07;100.00;96645.84;5037046;28;20418;-73
2022/09/26 06:57:57;;;;;;;9.15;5.22;;;11.00;99.90;;;10.07;100.00;96648.50;5033482;28;20825;-71
2022/09/26 07:00:25;;;;;;;11.52;6.18;;;11.00;99.90;;;10.18;100.00;96638.72;5047651;28;20412;-72
2022/09/26 07:02:54;;;;;;;8.50;4.50;;;11.10;99.90;;;9.95;100.00;96637.38;5050047;28;20413;-72
2022/09/26 07:05:22;;;;;;;13.05;5.10;;;10.90;99.90;;;10.01;100.00;96631.81;5043022;28;20432;-73
2022/09/26 07:07:48;;;;;;;9.45;5.00;;;11.00;99.90;;;10.04;100.00;96628.66;5050043;28;20401;-71
2022/09/26 07:10:20;;;;;;;15.15;5.60;;;11.00;99.90;;;10.12;100.00;96634.47;5050416;28;20762;-71
2022/09/26 07:12:47;;;;;;;8.18;4.80;;;11.00;99.90;;;10.20;100.00;96634.75;5049577;28;20423;-72
2022/09/26 07:15:16;;;;;;;9.75;5.00;;;11.10;99.90;;;10.27;100.00;96631.84;5050281;28;20413;-73
2022/09/26 07:17:44;;;;;;;7.72;4.63;;;11.20;99.90;;;10.39;100.00;96635.78;5050146;28;20420;-73
2022/09/26 07:20:14;;;;;;;7.63;4.18;;;11.30;99.90;;;10.46;100.00;96638.94;5050158;28;20402;-72
2022/09/26 07:22:42;;;;;;;7.10;4.68;;;11.40;99.90;;;10.43;100.00;96636.84;5049317;28;20512;-73
2022/09/26 07:25:09;;;;;;;9.75;5.00;;;11.40;99.90;;;10.43;100.00;96636.06;5050192;28;20883;-72
2022/09/26 07:27:36;;;;;;;7.23;4.30;;;11.30;99.90;;;10.54;100.00;96634.16;5050081;28;20447;-72
2022/09/26 07:30:02;;;;;;;8.63;4.40;;;11.50;99.90;;;10.45;100.00;96629.41;5049472;28;20417;-72
2022/09/26 07:32:32;;;;;;;9.25;4.32;;;11.40;99.90;;;10.53;100.00;96624.63;5049838;28;20401;-72
2022/09/26 07:34:58;;;;;;;7.93;4.35;;;11.40;99.90;;;10.67;100.00;96613.22;5049847;28;20435;-73
2022/09/26 07:37:25;;;;;;;5.95;3.72;;;11.50;99.90;;;10.61;100.00;96616.94;5050198;28;20440;-73
2022/09/26 07:39:51;;;;;;;4.93;3.90;;;11.50;99.90;;;10.69;100.00;96618.22;5049981;28;20397;-72
2022/09/26 07:42:17;;;;;;;8.38;4.20;;;11.60;99.90;;;10.61;100.00;96616.13;5050002;28;20852;-72
2022/09/26 07:44:44;;;;;;;5.43;3.97;;;11.60;99.90;;;10.56;100.00;96606.38;5049685;28;20409;-73
2022/09/26 07:52:42;;;;;;;7.10;3.42;;;11.30;99.90;;;10.48;100.00;96606.91;5049030;28;20419;-74
2022/09/26 07:55:10;;;;;;;8.82;4.00;;;11.40;99.90;;;10.59;100.00;96605.06;5049721;28;20906;-75
2022/09/26 07:57:36;;;;;;;6.45;3.63;;;11.50;99.90;;;10.74;100.00;96611.09;5048496;28;20409;-73
2022/09/26 08:00:04;;;;;;;5.82;3.67;;;11.60;99.90;;;10.77;100.00;96607.88;5052618;28;20736;-73
2022/09/26 08:02:33;;;;;;;7.82;4.00;;;11.70;99.90;;;11.03;100.00;96602.47;5053896;28;20522;-73
2022/09/26 08:04:59;;;;;;;6.43;4.00;;;11.80;99.90;;;11.09;100.00;96602.19;5053676;28;20401;-72
2022/09/26 08:07:25;;;;;;;6.47;3.63;;;12.00;99.90;;;11.14;100.00;96602.16;5053989;28;20428;-74
2022/09/26 08:09:53;;;;;;;7.63;3.90;;;12.10;99.90;;;11.21;100.00;96592.03;5053673;28;20883;-72
2022/09/26 08:12:19;;;;;;;6.20;3.85;;;12.10;99.90;;;11.35;100.00;96594.09;5053610;28;20405;-74
2022/09/26 08:14:50;;;;;;;6.70;3.65;;;12.20;99.90;;;11.31;100.00;96587.75;5033469;28;20412;-73
2022/09/26 08:17:16;;;;;;;5.82;3.45;;;12.20;99.90;;;11.34;100.00;96581.91;5033848;28;20410;-73
2022/09/26 08:19:42;;;;;;;6.70;3.58;;;12.20;99.90;;;11.24;100.00;96580.13;5039018;28;20417;-73
2022/09/26 08:22:08;;;;;;;5.63;3.72;;;12.10;99.90;;;11.22;100.00;96575.09;5050848;28;20455;-73
2022/09/26 08:24:34;;;;;;;4.90;3.58;;;12.10;99.90;;;11.44;100.00;96582.63;5052536;28;20429;-72
2022/09/26 08:27:02;;;;;;;6.35;3.63;;;12.30;99.90;;;11.46;100.00;96585.00;5053340;28;20468;-73
2022/09/26 08:29:31;;;;;;;5.00;3.80;;;12.30;99.90;;;11.54;100.00;96581.75;5036605;28;20816;-73
2022/09/26 08:31:57;;;;;;;6.00;3.28;;;12.40;99.90;;;11.62;100.00;96578.53;5047742;28;20485;-73
2022/09/26 08:34:23;;;;;;;5.65;3.63;;;12.50;99.90;;;11.72;100.00;96573.16;5041947;28;20500;-73
2022/09/26 08:36:53;;;;;;;5.07;3.10;;;12.60;99.90;;;11.85;100.00;96579.69;5040506;28;20407;-74
2022/09/26 08:39:19;;;;;;;6.15;3.40;;;12.70;99.90;;;11.95;100.00;96575.06;5049468;28;20456;-73
2022/09/26 08:42:17;;;;;;;7.72;3.45;;;12.80;99.90;;;11.99;100.00;96573.47;5052542;28;20417;-74
2022/09/26 08:46:24;;;;;;;6.68;3.78;;;12.90;99.90;;;12.11;100.00;96574.94;5040615;28;20403;-74
2022/09/26 08:48:01;;;;;;;7.38;3.22;;;12.90;99.90;;;12.20;97.34;96574.06;5047949;28;20403;-73
2022/09/26 08:50:35;;;;;;;6.00;3.22;;;13.00;99.90;;;12.18;98.10;96560.28;5036913;28;20445;-73
2022/09/26 08:53:04;;;;;;;6.40;3.37;;;13.00;99.90;;;12.13;98.52;96552.38;5049719;28;20401;-74
2022/09/26 08:55:36;;;;;;;7.45;3.25;;;13.00;99.90;;;12.02;97.67;96564.97;5052123;28;20421;-74
2022/09/26 08:58:11;;;;;;;7.68;3.17;;;12.90;99.90;;;12.08;93.50;96573.66;5052997;28;20401;-73
2022/09/26 09:00:37;;;;;;;6.57;3.20;;;12.80;99.90;;;12.01;94.98;96566.03;5045479;28;20403;-74
2022/09/26 09:03:15;;;;;;;11.20;3.60;;;12.90;99.90;;;12.10;94.43;96570.72;5050898;28;20794;-74
2022/09/26 09:05:44;;;;;;;10.00;3.72;;;13.00;99.90;;;12.33;93.65;96562.75;5046583;28;20411;-74
2022/09/26 09:08:15;;;;;;;6.82;3.38;;;13.10;99.90;;;12.27;92.60;96563.91;5050745;28;20402;-73
2022/09/26 09:10:46;;;;;;;7.75;3.53;;;13.20;99.90;;;12.45;93.33;96566.91;5050148;28;20421;-73
2022/09/26 09:13:36;;;;;;;9.57;4.10;;;13.30;99.90;;;12.64;91.42;96565.88;5049413;28;20937;-74
2022/09/26 09:16:19;;;;;;;11.00;3.65;;;13.40;99.90;;;12.60;88.05;96554.25;5051634;28;20412;-74
2022/09/26 09:18:55;;;;;;;5.05;2.80;;;13.50;99.90;;;12.61;90.52;96552.38;5057771;23;20466;-70
2022/09/26 09:21:35;;;;;;;4.57;2.70;;;13.50;99.90;;;12.97;85.82;96550.84;5028705;28;20530;-70
2022/09/26 09:24:18;;;;;;;7.38;2.97;;;13.70;99.90;;;12.89;84.96;96550.69;5027841;28;20920;-71
2022/09/26 09:26:59;;;;;;;7.72;3.00;;;13.70;99.90;;;12.96;85.71;96549.28;5028318;28;20446;-70
2022/09/26 09:29:55;;;;;;;9.07;2.92;;;13.70;99.90;;;12.90;82.89;96546.97;5030450;28;20426;-69
2022/09/26 09:32:29;;;;;;;8.98;3.47;;;13.70;99.90;;;12.79;81.69;96543.66;5027205;28;20939;-70
2022/09/26 09:34:56;;;;;;;7.28;2.85;;;13.70;99.90;;;13.03;86.48;96540.94;5031457;28;20417;-69
2022/09/26 09:37:27;;;;;;;7.43;2.22;;;13.80;99.90;;;13.09;86.54;96537.13;5031181;28;20417;-69
2022/09/26 09:39:55;;;;;;;5.50;3.00;;;13.90;99.90;;;13.19;85.08;96534.38;5031524;28;20427;-69
2022/09/26 09:42:30;;;;;;;4.03;2.15;;;14.00;99.90;;;13.22;87.92;96533.81;5031556;28;20450;-69
2022/09/26 09:45:04;;;;;;;12.43;2.88;;;14.00;99.90;;;13.29;81.09;96528.13;5031575;28;20905;-72
2022/09/26 09:47:31;;;;;;;8.77;2.90;;;14.10;99.90;;;13.29;77.78;96531.56;5031779;28;20553;-70
2022/09/26 09:49:58;;;;;;;4.80;2.50;;;14.10;99.90;;;13.43;80.64;96532.41;5030798;28;20457;-71
2022/09/26 09:52:44;;;;;;;5.40;2.38;;;14.10;99.90;;;13.81;84.11;96522.50;5029796;28;20501;-70
2022/09/26 09:55:37;;;;;;;6.05;2.55;;;14.60;99.90;;;14.03;84.12;96521.84;5031382;28;20971;-71
2022/09/26 09:58:37;;;;;;;4.50;2.60;;;14.80;99.90;;;14.25;82.48;96511.31;5030729;28;20697;-70
2022/09/26 10:01:13;;;;;;;4.67;2.17;;;15.00;99.90;;;14.39;77.60;96511.34;5031218;28;20410;-71
2022/09/26 10:03:48;;;;;;;3.27;2.33;;;15.20;99.90;;;14.60;78.72;96515.16;5030926;28;20423;-70
2022/09/26 10:06:14;;;;;;;3.08;2.20;;;15.30;99.90;;;14.61;78.68;96516.75;5031366;28;20554;-72
2022/09/26 10:08:41;;;;;;;3.65;2.05;;;15.30;99.90;;;14.30;80.41;96510.41;5031161;28;20892;-71
2022/09/26 10:11:22;;;;;;;2.53;1.90;;;15.10;99.90;;;14.23;77.75;96512.69;5013776;28;20960;-70
2022/09/26 10:13:54;;;;;;;3.90;1.77;;;15.10;99.90;;;14.03;80.63;96513.84;5016078;28;20429;-70
2022/09/26 10:16:23;;;;;;;5.65;1.60;;;14.90;99.90;;;14.15;75.40;96494.72;5026397;28;20423;-70
2022/09/26 10:18:59;;;;;;;3.72;1.70;;;14.90;99.90;;;13.93;77.02;96501.50;5027593;28;20419;-70
2022/09/26 10:21:31;;;;;;;2.83;1.40;;;14.70;99.90;;;13.83;75.02;96491.03;5027770;28;20420;-71
2022/09/26 10:23:58;;;;;;;7.00;2.33;;;14.70;99.90;;;14.13;75.85;96486.28;5026834;28;20415;-71
2022/09/26 10:26:36;;;;;;;6.35;1.90;;;14.80;99.90;;;14.14;73.70;96480.63;5027810;28;20403;-71
2022/09/26 10:29:07;;;;;;;3.88;1.90;;;14.90;99.70;;;14.15;70.12;96486.75;5017029;28;20934;-71
2022/09/26 10:31:37;;;;;;;4.63;1.80;;;15.00;95.60;;;14.64;73.97;96470.88;5013260;28;20411;-70
2022/09/26 10:34:23;;;;;;;5.25;1.83;;;15.20;99.90;;;15.00;73.37;96478.09;5030549;28;20525;-70
2022/09/26 10:36:48;;;;;;;3.30;1.77;;;15.60;99.90;;;15.20;75.04;96479.50;5030768;28;20418;-70